Time;durP1;ratioP1;P1;durP2;ratioP2;P2;SDS_P1;SDS_P2;PMS_P1;PMS_P2;Temp;Humidity;BMP_temperature;BMP_pressure;BME280_temperature;BME280_humidity;BME280_pressure;Samples;Min_cycle;Max_cycle;Signal;HPM_P1;HPM_P2
2022/09/04 00:01:32;;;;;;;2.38;1.40;;;17.70;76.50;;;;;;5000166;28;20527;-73
2022/09/04 00:04:40;;;;;;;2.90;1.20;;;17.70;76.80;;;;;;4999682;28;20539;-73
2022/09/04 00:07:22;;;;;;;2.85;1.40;;;17.70;76.20;;;;;;4957472;28;20400;-72
2022/09/04 00:09:55;;;;;;;2.35;1.60;;;17.60;76.30;;;;;;4987315;28;20389;-71
2022/09/04 00:12:28;;;;;;;4.18;1.58;;;17.60;76.70;;;;;;4991861;28;20409;-73
2022/09/04 00:15:06;;;;;;;5.18;1.35;;;17.60;77.50;;;;;;4996285;28;20129;-72
2022/09/04 00:17:40;;;;;;;1.40;1.23;;;17.50;78.10;;;;;;4977477;28;20052;-73
2022/09/04 00:20:41;;;;;;;2.13;1.50;;;17.40;77.80;;;;;;4988022;28;20095;-73
2022/09/04 00:23:18;;;;;;;2.97;1.55;;;17.40;78.40;;;;;;5004060;28;20129;-70
2022/09/04 00:25:52;;;;;;;3.35;1.52;;;17.30;79.00;;;;;;4993314;28;20030;-73
2022/09/04 00:28:44;;;;;;;3.88;1.50;;;17.30;79.10;;;;;;4986333;28;20044;-73
2022/09/04 00:31:11;;;;;;;2.28;1.52;;;17.30;78.90;;;;;;4982574;28;20052;-73
2022/09/04 00:33:45;;;;;;;4.05;1.77;;;17.30;79.80;;;;;;4987448;28;20168;-72
2022/09/04 00:36:14;;;;;;;4.75;1.50;;;17.30;80.40;;;;;;4992446;28;20033;-71
2022/09/04 00:38:48;;;;;;;3.72;1.60;;;17.20;79.50;;;;;;4986709;28;20046;-73
2022/09/04 00:41:33;;;;;;;2.92;1.38;;;17.30;79.60;;;;;;5005822;28;20120;-72
2022/09/04 00:44:30;;;;;;;3.75;1.50;;;17.20;79.80;;;;;;4988796;28;20049;-73
2022/09/04 00:47:32;;;;;;;4.78;1.70;;;17.20;80.00;;;;;;4989509;28;20045;-73
2022/09/04 00:50:38;;;;;;;6.70;1.70;;;17.10;79.00;;;;;;4979595;28;20042;-73
2022/09/04 00:53:22;;;;;;;4.53;1.67;;;17.10;79.90;;;;;;4990450;28;20389;-71
2022/09/04 00:56:17;;;;;;;2.47;1.50;;;17.00;79.70;;;;;;4989479;28;20143;-71
2022/09/04 00:59:24;;;;;;;4.35;1.88;;;17.00;81.10;;;;;;4977837;28;20156;-73
2022/09/04 01:01:54;;;;;;;2.67;1.80;;;16.90;82.40;;;;;;4916383;29;20035;-72
2022/09/04 01:04:42;;;;;;;2.72;1.50;;;16.80;82.90;;;;;;4962406;28;20509;-73
2022/09/04 01:07:22;;;;;;;1.90;1.60;;;16.80;83.80;;;;;;5008731;28;20052;-71
2022/09/04 01:10:07;;;;;;;4.57;1.70;;;16.70;83.60;;;;;;4993448;28;20038;-73
2022/09/04 01:12:47;;;;;;;3.05;1.65;;;16.70;84.10;;;;;;4990597;28;20034;-71
2022/09/04 01:15:24;;;;;;;3.92;1.50;;;16.70;83.70;;;;;;4996896;28;20104;-71
2022/09/04 01:18:03;;;;;;;2.20;1.60;;;16.70;84.10;;;;;;5007522;28;20040;-73
2022/09/04 01:20:55;;;;;;;4.40;1.60;;;16.60;84.20;;;;;;5007911;28;20040;-71
2022/09/04 01:23:27;;;;;;;5.82;1.60;;;16.60;84.10;;;;;;4991050;28;20041;-71
2022/09/04 01:26:08;;;;;;;3.75;1.90;;;16.60;84.60;;;;;;4988752;28;20053;-73
2022/09/04 01:29:17;;;;;;;6.28;1.70;;;16.60;86.10;;;;;;4990830;28;20065;-72
2022/09/04 01:31:51;;;;;;;5.18;1.80;;;16.50;86.30;;;;;;4978061;28;20102;-73
2022/09/04 01:34:35;;;;;;;8.30;1.85;;;16.50;86.60;;;;;;4988593;28;20104;-73
2022/09/04 01:37:13;;;;;;;4.45;1.85;;;16.50;86.90;;;;;;4989867;28;20378;-73
2022/09/04 01:39:42;;;;;;;5.32;1.60;;;16.40;86.50;;;;;;5006223;28;20089;-70
2022/09/04 01:42:19;;;;;;;5.10;1.50;;;16.40;86.90;;;;;;4977002;28;20042;-71
2022/09/04 01:44:46;;;;;;;5.85;1.67;;;16.40;87.40;;;;;;5005724;28;20065;-73
2022/09/04 01:47:39;;;;;;;4.68;1.80;;;16.40;87.60;;;;;;4990052;28;20046;-72
2022/09/04 01:50:20;;;;;;;3.60;1.70;;;16.30;88.10;;;;;;5005672;28;20088;-71
2022/09/04 01:53:13;;;;;;;5.57;1.80;;;16.30;88.80;;;;;;4987820;28;20056;-71
2022/09/04 01:56:13;;;;;;;1.98;1.58;;;16.30;90.10;;;;;;4990181;28;20080;-72
2022/09/04 01:58:45;;;;;;;3.92;1.58;;;16.20;90.10;;;;;;4974594;28;20485;-73
2022/09/04 02:01:22;;;;;;;2.50;1.63;;;16.20;90.60;;;;;;4990508;28;20041;-73
2022/09/04 02:04:02;;;;;;;2.70;1.67;;;16.10;90.70;;;;;;4975450;28;20038;-71
2022/09/04 02:06:51;;;;;;;1.77;1.33;;;16.10;90.90;;;;;;4989898;28;20046;-72
2022/09/04 02:09:50;;;;;;;5.18;1.77;;;16.00;91.50;;;;;;5007651;28;20042;-72
2022/09/04 02:12:21;;;;;;;6.63;2.08;;;16.00;91.90;;;;;;4958962;28;20044;-72
2022/09/04 02:15:09;;;;;;;5.70;1.70;;;15.90;91.70;;;;;;4973626;28;20505;-73
2022/09/04 02:17:49;;;;;;;10.88;1.70;;;15.90;91.90;;;;;;4977574;28;20080;-71
2022/09/04 02:20:26;;;;;;;7.07;2.00;;;15.90;92.00;;;;;;4985693;28;20041;-73
2022/09/04 02:23:16;;;;;;;4.38;1.70;;;15.90;92.20;;;;;;4989583;28;20046;-73
2022/09/04 02:26:06;;;;;;;3.50;1.60;;;15.80;92.20;;;;;;4989860;28;20038;-73
2022/09/04 02:28:57;;;;;;;2.35;1.63;;;15.80;92.20;;;;;;4988495;28;20046;-71
2022/09/04 02:31:37;;;;;;;4.63;1.80;;;15.80;92.60;;;;;;4987966;28;20042;-71
2022/09/04 02:34:16;;;;;;;4.55;1.90;;;15.80;92.60;;;;;;4990942;28;20053;-71
2022/09/04 02:36:52;;;;;;;7.72;1.90;;;15.70;92.70;;;;;;4985420;28;20120;-73
2022/09/04 02:39:30;;;;;;;3.50;1.70;;;15.80;92.80;;;;;;5005433;28;20038;-73
2022/09/04 02:42:16;;;;;;;3.70;1.80;;;15.70;92.80;;;;;;4987956;28;20574;-73
2022/09/04 02:44:57;;;;;;;3.70;1.80;;;15.70;93.00;;;;;;4990076;28;20060;-71
2022/09/04 02:47:36;;;;;;;5.22;1.70;;;15.70;93.20;;;;;;4981527;28;20130;-72
2022/09/04 02:50:31;;;;;;;2.72;1.60;;;15.70;93.20;;;;;;4988405;28;20408;-73
2022/09/04 02:53:34;;;;;;;6.45;1.70;;;15.60;93.10;;;;;;5005725;28;20062;-71
2022/09/04 02:56:21;;;;;;;4.63;1.80;;;15.60;93.30;;;;;;4990539;28;20101;-71
2022/09/04 02:59:16;;;;;;;4.32;1.77;;;15.60;93.70;;;;;;4976995;28;20045;-71
2022/09/04 03:01:58;;;;;;;7.05;1.65;;;15.50;94.00;;;;;;4989266;28;20052;-73
2022/09/04 03:04:35;;;;;;;4.25;1.80;;;15.50;94.00;;;;;;4987664;28;20508;-73
2022/09/04 03:07:19;;;;;;;2.00;1.73;;;15.50;93.90;;;;;;4992090;28;20037;-73
2022/09/04 03:09:50;;;;;;;3.00;1.80;;;15.40;94.00;;;;;;4989791;28;20124;-71
2022/09/04 03:12:36;;;;;;;3.10;1.60;;;15.40;94.20;;;;;;4987678;28;20041;-71
2022/09/04 03:15:35;;;;;;;4.97;1.77;;;15.40;94.40;;;;;;4988034;28;20173;-73
2022/09/04 03:18:38;;;;;;;3.78;1.83;;;15.40;94.80;;;;;;4989422;28;20055;-70
2022/09/04 03:21:26;;;;;;;2.22;1.60;;;15.30;95.60;;;;;;4988829;28;20046;-73
2022/09/04 03:23:59;;;;;;;5.43;2.00;;;15.20;95.90;;;;;;4986537;28;20049;-72
2022/09/04 03:26:34;;;;;;;2.17;1.80;;;15.20;95.90;;;;;;4961506;28;20551;-73
2022/09/04 03:29:08;;;;;;;6.15;2.00;;;15.20;96.30;;;;;;4988511;28;20045;-71
2022/09/04 03:31:50;;;;;;;3.15;1.70;;;15.10;96.50;;;;;;4986266;28;20049;-71
2022/09/04 03:34:39;;;;;;;3.40;1.75;;;15.10;96.60;;;;;;5005101;28;20049;-72
2022/09/04 03:37:40;;;;;;;3.08;1.80;;;15.10;96.60;;;;;;4992821;28;20042;-73
2022/09/04 03:40:17;;;;;;;10.05;2.00;;;15.00;97.00;;;;;;4990778;28;20049;-72
2022/09/04 03:43:03;;;;;;;4.50;2.05;;;15.00;97.30;;;;;;4975784;28;20038;-73
2022/09/04 03:46:00;;;;;;;4.90;1.98;;;15.00;97.90;;;;;;4985959;28;20485;-72
2022/09/04 03:49:09;;;;;;;3.38;2.20;;;14.90;98.00;;;;;;4988133;28;20041;-73
2022/09/04 03:51:44;;;;;;;3.63;1.83;;;14.90;98.10;;;;;;4986024;28;20152;-73
2022/09/04 03:54:58;;;;;;;6.40;2.20;;;14.90;98.10;;;;;;4987395;28;20049;-73
2022/09/04 03:57:45;;;;;;;5.38;2.10;;;14.90;98.00;;;;;;4954174;28;20084;-73
2022/09/04 04:00:17;;;;;;;2.67;2.00;;;14.90;97.90;;;;;;5003088;28;20049;-72
2022/09/04 04:03:07;;;;;;;6.17;2.57;;;14.80;98.10;;;;;;5007063;28;20041;-72
2022/09/04 04:05:55;;;;;;;5.53;2.38;;;14.80;98.40;;;;;;4990549;28;20049;-72
2022/09/04 04:08:45;;;;;;;4.03;2.20;;;14.80;98.80;;;;;;4975163;28;20041;-73
2022/09/04 04:11:17;;;;;;;5.00;2.13;;;14.80;98.70;;;;;;4984675;28;20045;-72
2022/09/04 04:13:58;;;;;;;6.25;2.10;;;14.80;98.80;;;;;;5006627;28;20045;-72
2022/09/04 04:16:50;;;;;;;3.83;2.08;;;14.80;99.00;;;;;;4999635;28;20041;-72
2022/09/04 04:19:47;;;;;;;5.03;2.17;;;14.80;98.90;;;;;;4986896;28;20124;-72
2022/09/04 04:22:31;;;;;;;4.30;2.20;;;14.80;99.10;;;;;;4973012;28;20296;-71
2022/09/04 04:25:24;;;;;;;6.45;2.17;;;14.70;99.10;;;;;;4990873;28;20049;-72
2022/09/04 04:28:18;;;;;;;4.13;2.20;;;14.70;99.10;;;;;;4997488;28;20096;-72
2022/09/04 04:30:53;;;;;;;3.22;2.25;;;14.70;99.10;;;;;;4991572;28;20092;-71
2022/09/04 04:33:46;;;;;;;6.33;2.13;;;14.70;99.40;;;;;;4990096;28;20041;-71
2022/09/04 04:36:44;;;;;;;5.57;2.38;;;14.70;99.40;;;;;;4998437;28;20038;-72
2022/09/04 04:39:43;;;;;;;7.43;2.00;;;14.60;99.50;;;;;;4987772;28;20041;-72
2022/09/04 04:42:32;;;;;;;6.53;2.20;;;14.50;99.90;;;;;;4979556;28;20045;-71
2022/09/04 04:48:16;;;;;;;5.05;2.45;;;14.60;99.90;;;;;;4995430;28;20060;-71
2022/09/04 04:51:19;;;;;;;4.97;2.53;;;14.60;99.90;;;;;;4997444;28;20029;-71
2022/09/04 04:53:56;;;;;;;5.85;2.58;;;14.50;99.90;;;;;;4992254;28;20050;-71
2022/09/04 04:56:44;;;;;;;4.10;2.60;;;14.50;99.90;;;;;;4993274;28;20034;-71
2022/09/04 04:59:22;;;;;;;7.93;2.95;;;14.40;99.90;;;;;;5002528;28;20117;-71
2022/09/04 05:02:20;;;;;;;4.03;2.40;;;14.40;99.90;;;;;;4993493;28;20073;-71
2022/09/04 05:05:13;;;;;;;7.55;3.28;;;14.30;99.90;;;;;;4993551;28;20037;-71
2022/09/04 05:08:11;;;;;;;9.63;2.97;;;14.40;99.90;;;;;;4995611;28;20550;-70
2022/09/04 05:10:47;;;;;;;4.72;2.28;;;14.40;99.90;;;;;;5010791;28;20053;-71
2022/09/04 05:13:49;;;;;;;5.93;2.78;;;14.40;99.90;;;;;;4994776;28;20095;-71
2022/09/04 05:16:20;;;;;;;5.80;2.40;;;14.40;99.90;;;;;;4993447;28;20057;-71
2022/09/04 05:19:20;;;;;;;5.75;2.60;;;14.40;99.90;;;;;;4994601;28;20033;-71
2022/09/04 05:22:11;;;;;;;7.25;2.78;;;14.40;99.90;;;;;;4994540;28;20052;-71
2022/09/04 05:24:43;;;;;;;3.15;2.67;;;14.50;99.90;;;;;;4996124;28;20041;-71
2022/09/04 05:27:14;;;;;;;3.22;2.22;;;14.50;99.90;;;;;;4994836;28;20041;-71
2022/09/04 05:29:50;;;;;;;4.15;2.50;;;14.50;99.90;;;;;;4994428;28;20048;-71
2022/09/04 05:32:30;;;;;;;7.20;2.35;;;14.50;99.90;;;;;;4956857;28;1070008;-71
2022/09/04 05:35:01;;;;;;;3.38;2.50;;;14.60;99.90;;;;;;4997492;28;20050;-71
2022/09/04 05:38:03;;;;;;;5.15;2.50;;;14.60;99.90;;;;;;4995469;28;20052;-71
2022/09/04 05:41:05;;;;;;;4.22;2.72;;;14.60;99.90;;;;;;4973343;28;20045;-71
2022/09/04 05:43:52;;;;;;;4.05;2.42;;;14.70;99.90;;;;;;4998132;28;20077;-71
2022/09/04 05:46:55;;;;;;;5.70;2.67;;;14.70;99.90;;;;;;4996466;28;20050;-71
2022/09/04 05:49:40;;;;;;;7.60;2.95;;;14.70;99.90;;;;;;4993073;28;20049;-71
2022/09/04 05:52:09;;;;;;;6.10;2.58;;;14.70;99.90;;;;;;4995969;28;20142;-72
2022/09/04 05:55:01;;;;;;;5.15;2.95;;;14.80;99.90;;;;;;4997821;28;20042;-71
2022/09/04 05:58:00;;;;;;;6.82;3.00;;;14.80;99.90;;;;;;4998272;28;20057;-71
2022/09/04 06:00:40;;;;;;;6.95;2.70;;;14.90;99.90;;;;;;4994400;28;20037;-72
2022/09/04 06:03:11;;;;;;;8.55;2.97;;;14.90;99.90;;;;;;4995395;28;20538;-71
2022/09/04 06:06:15;;;;;;;8.37;3.03;;;15.00;99.90;;;;;;4995848;28;20049;-71
2022/09/04 06:08:53;;;;;;;14.18;3.00;;;15.10;99.90;;;;;;4992143;28;20050;-71
2022/09/04 06:11:27;;;;;;;4.82;2.80;;;15.10;99.90;;;;;;4994752;28;20041;-71
2022/09/04 06:14:14;;;;;;;5.35;2.80;;;15.20;99.90;;;;;;4995572;28;20073;-71
2022/09/04 06:16:45;;;;;;;9.93;3.00;;;15.20;99.90;;;;;;4981271;28;20069;-71
2022/09/04 06:19:23;;;;;;;6.13;2.67;;;15.30;99.90;;;;;;5000001;28;20041;-70
2022/09/04 06:21:53;;;;;;;5.35;2.50;;;15.40;99.90;;;;;;5014762;28;20057;-71
2022/09/04 06:24:28;;;;;;;4.15;2.63;;;15.40;99.90;;;;;;5006370;28;20117;-71
2022/09/04 06:27:20;;;;;;;3.35;2.75;;;15.40;99.90;;;;;;4989123;28;20092;-71
2022/09/04 06:30:12;;;;;;;6.55;2.80;;;15.50;99.90;;;;;;4993032;28;20084;-71
2022/09/04 06:33:07;;;;;;;6.55;2.95;;;15.60;99.90;;;;;;4993390;28;20045;-71
2022/09/04 06:35:36;;;;;;;4.40;2.78;;;15.60;99.90;;;;;;4994855;28;20119;-71
2022/09/04 06:38:37;;;;;;;4.80;2.67;;;15.60;99.90;;;;;;4997742;28;20041;-71
2022/09/04 06:41:23;;;;;;;9.43;2.80;;;15.60;99.90;;;;;;5013279;28;20042;-71
2022/09/04 06:44:02;;;;;;;9.77;2.60;;;15.70;99.90;;;;;;4994103;28;20049;-71
2022/09/04 06:46:41;;;;;;;4.22;2.90;;;15.70;99.90;;;;;;4993754;28;20038;-71
2022/09/04 06:49:20;;;;;;;5.97;2.72;;;15.80;99.90;;;;;;5009724;28;20038;-72
2022/09/04 06:52:11;;;;;;;7.82;3.00;;;15.80;99.90;;;;;;5007094;28;20034;-71
2022/09/04 06:54:53;;;;;;;7.55;2.50;;;15.90;99.90;;;;;;4989269;28;20042;-71
2022/09/04 06:57:45;;;;;;;4.53;2.67;;;16.00;99.90;;;;;;4984775;28;20042;-71
2022/09/04 07:00:16;;;;;;;5.60;2.50;;;16.10;99.90;;;;;;4992234;28;20042;-71
2022/09/04 07:03:03;;;;;;;6.40;2.80;;;16.10;99.90;;;;;;4991437;28;20034;-71
2022/09/04 07:05:41;;;;;;;6.05;2.80;;;16.10;99.90;;;;;;5000958;28;20467;-71
2022/09/04 07:08:42;;;;;;;4.65;2.92;;;16.20;99.90;;;;;;4989397;28;20053;-71
2022/09/04 07:11:51;;;;;;;5.82;2.70;;;16.30;99.90;;;;;;5005727;28;20096;-71
2022/09/04 07:14:35;;;;;;;6.35;2.80;;;16.50;99.90;;;;;;4992101;28;20536;-71
2022/09/04 07:17:27;;;;;;;5.22;2.63;;;16.50;99.90;;;;;;5002128;28;20069;-71
2022/09/04 07:20:10;;;;;;;4.85;2.90;;;16.70;99.90;;;;;;4981077;28;20049;-72
2022/09/04 07:22:35;;;;;;;;;;;16.70;99.90;;;;;;5010812;28;20346;-71
2022/09/04 07:25:25;;;;;;;4.78;2.15;;;16.90;99.90;;;;;;5019129;28;19916;-71
2022/09/04 07:28:18;;;;;;;5.32;2.83;;;17.00;99.90;;;;;;4990850;28;20050;-71
2022/09/04 07:31:02;;;;;;;3.30;2.20;;;17.20;99.80;;;;;;4992904;28;20091;-71
2022/09/04 07:33:49;;;;;;;6.47;2.63;;;17.40;99.50;;;;;;4997848;28;20401;-71
2022/09/04 07:36:44;;;;;;;4.95;2.40;;;17.50;99.50;;;;;;4995602;28;20090;-71
2022/09/04 07:39:38;;;;;;;3.78;2.15;;;17.70;99.30;;;;;;4986044;28;20050;-72
2022/09/04 07:42:15;;;;;;;2.60;2.10;;;17.80;98.90;;;;;;4991236;28;20548;-72
2022/09/04 07:44:50;;;;;;;3.28;2.22;;;18.00;98.70;;;;;;4990978;28;20678;-72
2022/09/04 07:47:33;;;;;;;6.13;2.10;;;18.10;98.50;;;;;;4992186;28;20040;-71
2022/09/04 07:50:20;;;;;;;4.10;2.30;;;18.30;98.30;;;;;;4992697;28;20045;-72
2022/09/04 07:53:27;;;;;;;6.75;2.70;;;18.50;97.80;;;;;;5012889;28;20080;-72
2022/09/04 07:56:24;;;;;;;3.22;2.30;;;18.50;97.40;;;;;;4973919;28;20524;-72
2022/09/04 07:59:20;;;;;;;2.90;1.98;;;18.80;97.40;;;;;;4990302;28;20049;-72
2022/09/04 08:01:54;;;;;;;3.10;2.20;;;18.90;97.00;;;;;;4988867;28;20041;-72
2022/09/04 08:04:39;;;;;;;5.53;2.42;;;19.00;96.60;;;;;;4997121;28;20096;-71
2022/09/04 08:07:19;;;;;;;4.68;2.38;;;19.20;96.50;;;;;;4984746;28;20045;-72
2022/09/04 08:09:55;;;;;;;4.13;2.20;;;19.40;96.30;;;;;;4992045;28;20534;-72
2022/09/04 08:12:24;;;;;;;3.78;2.15;;;19.50;96.10;;;;;;4987938;28;20038;-72
2022/09/04 08:15:20;;;;;;;4.80;2.10;;;19.60;96.20;;;;;;4974521;28;20569;-71
2022/09/04 08:17:58;;;;;;;5.90;2.03;;;19.70;96.10;;;;;;4984063;28;20049;-72
2022/09/04 08:20:44;;;;;;;6.88;2.15;;;19.80;95.80;;;;;;5001024;28;20448;-71
2022/09/04 08:23:42;;;;;;;5.43;2.30;;;20.00;95.50;;;;;;4997991;28;20133;-72
2022/09/04 08:26:30;;;;;;;3.80;2.10;;;20.10;95.20;;;;;;4965944;28;20080;-72
2022/09/04 08:30:18;;;;;;;3.92;2.00;;;20.30;95.10;;;;;;5116780;27;20100;-70
2022/09/04 08:33:15;;;;;;;5.78;2.10;;;20.40;95.20;;;;;;5103307;28;20046;-70
2022/09/04 08:35:51;;;;;;;3.85;2.00;;;20.60;94.90;;;;;;5099317;28;20036;-70
2022/09/04 08:38:32;;;;;;;3.70;2.08;;;20.70;94.70;;;;;;5099330;28;20093;-70
2022/09/04 08:41:35;;;;;;;4.38;1.88;;;20.90;94.40;;;;;;5093980;28;20686;-70
2022/09/04 08:44:28;;;;;;;5.05;2.17;;;21.10;94.20;;;;;;5114875;28;20967;-74
2022/09/04 08:47:12;;;;;;;4.80;2.20;;;21.10;93.80;;;;;;5097057;28;21351;-74
2022/09/04 08:50:28;;;;;;;4.18;2.22;;;21.30;94.20;;;;;;5101462;28;20078;-74
2022/09/04 08:53:13;;;;;;;9.70;1.83;;;21.30;93.30;;;;;;5089366;28;20555;-75
2022/09/04 08:56:40;;;;;;;4.40;1.92;;;21.40;93.30;;;;;;5097481;28;20044;-74
2022/09/04 08:59:34;;;;;;;5.30;1.98;;;21.50;93.00;;;;;;5020559;28;20599;-74
2022/09/04 09:02:25;;;;;;;4.93;2.10;;;21.60;93.10;;;;;;5094664;28;20071;-77
2022/09/04 09:05:18;;;;;;;3.65;1.90;;;21.70;93.10;;;;;;5098881;28;20406;-76
2022/09/04 09:07:44;;;;;;;2.80;2.00;;;21.80;92.70;;;;;;5102730;28;20475;-76
2022/09/04 09:10:31;;;;;;;4.70;2.10;;;21.90;93.00;;;;;;5101818;28;20070;-76
2022/09/04 09:13:40;;;;;;;4.53;1.70;;;22.00;92.90;;;;;;5099502;28;20123;-76
2022/09/04 09:16:18;;;;;;;3.15;1.60;;;22.10;92.00;;;;;;5097583;28;20501;-77
2022/09/04 09:19:21;;;;;;;7.35;1.85;;;22.20;91.80;;;;;;5095152;28;20479;-76
2022/09/04 09:22:08;;;;;;;;;;;22.40;91.60;;;;;;5099168;28;20402;-76
2022/09/04 09:25:03;;;;;;;4.18;1.80;;;22.60;91.40;;;;;;5100321;28;20433;-76
2022/09/04 09:27:50;;;;;;;2.70;1.75;;;22.70;91.70;;;;;;5095508;28;20394;-77
2022/09/04 09:30:21;;;;;;;2.30;1.63;;;22.80;91.00;;;;;;5092885;28;20052;-77
2022/09/04 09:33:08;;;;;;;3.88;1.90;;;23.00;90.80;;;;;;5097712;28;20079;-77
2022/09/04 09:36:08;;;;;;;6.57;2.10;;;23.20;90.90;;;;;;5080470;28;20035;-76
2022/09/04 09:38:58;;;;;;;12.07;2.58;;;23.30;90.30;;;;;;5097951;28;20047;-72
2022/09/04 09:41:50;;;;;;;3.80;1.83;;;23.50;89.80;;;;;;5082648;28;21493;-73
2022/09/04 09:44:38;;;;;;;3.33;1.75;;;23.60;90.50;;;;;;5084743;28;20040;-74
2022/09/04 09:47:28;;;;;;;5.75;1.75;;;23.90;90.00;;;;;;5083294;28;20467;-74
2022/09/04 09:50:20;;;;;;;4.85;1.70;;;24.10;89.30;;;;;;5085176;28;20032;-74
2022/09/04 09:53:11;;;;;;;3.72;1.52;;;24.30;88.40;;;;;;5082790;28;20037;-71
2022/09/04 09:56:14;;;;;;;2.05;1.70;;;24.40;86.80;;;;;;5066242;28;20036;-73
2022/09/04 09:59:14;;;;;;;13.73;1.88;;;24.60;87.10;;;;;;5085637;28;20040;-75
2022/09/04 10:02:25;;;;;;;5.78;1.77;;;24.90;83.50;;;;;;5050430;28;20044;-72
2022/09/04 10:05:03;;;;;;;4.68;1.90;;;25.10;83.30;;;;;;5084851;28;20071;-73
2022/09/04 10:07:50;;;;;;;6.68;1.50;;;25.30;82.50;;;;;;5084823;28;20097;-73
2022/09/04 10:10:36;;;;;;;2.88;1.40;;;25.50;82.30;;;;;;5085828;28;20066;-73
2022/09/04 10:13:36;;;;;;;6.85;1.70;;;25.70;80.70;;;;;;5084899;28;20036;-72
2022/09/04 10:16:31;;;;;;;3.50;1.60;;;25.90;80.40;;;;;;5080747;28;20035;-73
2022/09/04 10:19:27;;;;;;;4.85;1.65;;;26.00;78.50;;;;;;5065490;28;20921;-74
2022/09/04 10:22:19;;;;;;;3.53;1.73;;;26.10;77.70;;;;;;5078929;28;20155;-73
2022/09/04 10:24:56;;;;;;;3.50;1.70;;;26.30;77.20;;;;;;5064691;28;20094;-73
2022/09/04 10:28:18;;;;;;;5.32;1.67;;;26.20;76.20;;;;;;5048474;28;20044;-74
2022/09/04 10:30:46;;;;;;;6.28;1.60;;;26.30;77.10;;;;;;5076436;28;20052;-72
2022/09/04 10:33:41;;;;;;;2.45;1.40;;;26.50;76.80;;;;;;5083141;28;20482;-72
2022/09/04 10:36:21;;;;;;;3.33;1.40;;;26.70;75.50;;;;;;5053628;28;20633;-73
2022/09/04 10:42:06;;;;;;;4.80;1.70;;;27.10;73.90;;;;;;5089711;28;20086;-73
2022/09/04 10:45:08;;;;;;;4.53;1.73;;;27.30;72.20;;;;;;5086490;28;20067;-73
2022/09/04 10:48:06;;;;;;;2.38;1.40;;;27.30;73.40;;;;;;5081537;28;20423;-74
2022/09/04 10:50:56;;;;;;;2.22;1.60;;;27.40;72.80;;;;;;5076280;28;20059;-74
2022/09/04 10:53:37;;;;;;;4.78;1.40;;;27.50;71.80;;;;;;5078880;28;20044;-74
2022/09/04 10:56:28;;;;;;;3.30;1.80;;;27.50;71.70;;;;;;5081555;28;20078;-74
2022/09/04 10:59:09;;;;;;;11.15;2.10;;;27.50;71.50;;;;;;5075181;28;20047;-74
2022/09/04 11:01:43;;;;;;;7.35;1.65;;;27.60;71.90;;;;;;5079494;28;20032;-74
2022/09/04 11:04:47;;;;;;;5.10;1.95;;;27.70;70.70;;;;;;5082944;28;21290;-74
2022/09/04 11:07:23;;;;;;;6.75;1.60;;;27.80;71.70;;;;;;5081240;28;20048;-74
2022/09/04 11:10:13;;;;;;;5.43;1.90;;;28.00;70.70;;;;;;5074040;28;20062;-71
2022/09/04 11:13:02;;;;;;;8.55;1.98;;;28.20;69.30;;;;;;5076561;28;20403;-71
2022/09/04 11:15:37;;;;;;;2.45;1.35;;;28.30;68.80;;;;;;5075187;28;20045;-72
2022/09/04 11:18:32;;;;;;;6.25;2.20;;;28.50;68.60;;;;;;5076883;28;20036;-71
2022/09/04 11:21:10;;;;;;;3.60;1.40;;;28.60;69.60;;;;;;5073911;28;20387;-72
2022/09/04 11:23:42;;;;;;;9.30;1.75;;;28.90;67.40;;;;;;5078836;28;20676;-72
2022/09/04 11:26:07;;;;;;;;;;;29.00;67.60;;;;;;5077136;28;20510;-71
2022/09/04 11:28:55;;;;;;;2.28;1.30;;;29.30;67.10;;;;;;5076344;28;19920;-71
2022/09/04 11:31:54;;;;;;;6.47;1.80;;;29.40;66.20;;;;;;5078139;28;20032;-72
2022/09/04 11:34:47;;;;;;;3.88;1.60;;;29.50;65.20;;;;;;5078617;28;20422;-71
2022/09/04 11:37:34;;;;;;;1.60;1.48;;;29.70;64.40;;;;;;5044984;28;20048;-71
2022/09/04 11:40:26;;;;;;;2.78;1.60;;;29.70;65.00;;;;;;5080531;28;20036;-72
2022/09/04 11:43:27;;;;;;;4.90;1.50;;;29.80;65.40;;;;;;5077416;28;20462;-72
2022/09/04 11:46:20;;;;;;;3.30;1.10;;;29.90;63.70;;;;;;5074941;28;20071;-71
2022/09/04 11:49:04;;;;;;;1.98;1.40;;;29.80;64.30;;;;;;5077988;28;20040;-71
2022/09/04 11:51:52;;;;;;;3.22;1.30;;;29.80;63.50;;;;;;5079600;28;20381;-71
2022/09/04 11:54:30;;;;;;;2.03;1.20;;;29.90;63.80;;;;;;5079239;28;20040;-72
2022/09/04 11:57:13;;;;;;;4.03;1.30;;;30.00;62.90;;;;;;5080523;28;20455;-71
2022/09/04 11:59:47;;;;;;;40.25;4.25;;;30.20;64.20;;;;;;5072497;28;20526;-71
2022/09/04 12:02:32;;;;;;;3.63;1.10;;;30.30;63.10;;;;;;5077160;28;20039;-71
2022/09/04 12:05:38;;;;;;;4.32;1.45;;;30.40;62.90;;;;;;5075257;28;20067;-71
2022/09/04 12:08:22;;;;;;;4.85;1.20;;;30.50;62.20;;;;;;5078235;28;20043;-72
2022/09/04 12:11:30;;;;;;;4.65;1.20;;;30.50;60.70;;;;;;5074586;28;20055;-70
2022/09/04 12:14:27;;;;;;;3.22;1.30;;;30.50;62.10;;;;;;5073435;28;20064;-71
2022/09/04 12:16:59;;;;;;;4.38;1.15;;;30.60;60.30;;;;;;5076742;28;20092;-71
2022/09/04 12:20:03;;;;;;;5.47;1.25;;;30.60;61.50;;;;;;5076953;28;20046;-73
2022/09/04 12:22:29;;;;;;;5.45;1.23;;;30.60;62.00;;;;;;5077411;28;20040;-72
2022/09/04 12:25:18;;;;;;;5.93;1.50;;;30.70;60.90;;;;;;5080128;28;20058;-72
2022/09/04 12:27:53;;;;;;;4.18;1.40;;;30.90;60.20;;;;;;5074758;28;20058;-71
2022/09/04 12:30:24;;;;;;;2.97;1.23;;;30.90;59.20;;;;;;5076244;28;20044;-71
2022/09/04 12:33:19;;;;;;;4.10;1.40;;;30.90;59.80;;;;;;5079607;28;20089;-72
2022/09/04 12:36:18;;;;;;;6.20;1.45;;;31.00;58.80;;;;;;5080482;28;20043;-71
2022/09/04 12:39:05;;;;;;;1.98;1.20;;;31.20;58.10;;;;;;5076782;28;20094;-73
2022/09/04 12:41:42;;;;;;;5.80;1.20;;;31.30;57.30;;;;;;5078359;28;20036;-71
2022/09/04 12:44:33;;;;;;;4.68;1.58;;;31.40;58.80;;;;;;5078797;28;20059;-72
2022/09/04 12:47:18;;;;;;;4.95;1.33;;;31.50;58.00;;;;;;5078556;28;20039;-76
2022/09/04 12:50:02;;;;;;;3.38;1.30;;;31.60;57.30;;;;;;5077528;28;20131;-76
2022/09/04 12:52:36;;;;;;;1.65;1.15;;;31.60;58.10;;;;;;5079223;28;20043;-76
2022/09/04 12:55:05;;;;;;;2.60;1.20;;;31.70;58.70;;;;;;5078067;28;20052;-76
2022/09/04 12:57:38;;;;;;;3.00;1.30;;;31.80;58.20;;;;;;5081175;28;20036;-75
2022/09/04 13:00:15;;;;;;;2.53;1.20;;;31.90;59.00;;;;;;5080407;28;20545;-76
2022/09/04 13:03:02;;;;;;;4.63;1.20;;;32.10;56.30;;;;;;5064916;28;20507;-75
2022/09/04 13:05:38;;;;;;;3.22;1.40;;;32.30;57.40;;;;;;5078381;28;20044;-75
2022/09/04 13:08:42;;;;;;;3.17;1.20;;;32.50;55.80;;;;;;5078340;28;20048;-76
2022/09/04 13:11:27;;;;;;;4.13;1.10;;;32.70;56.00;;;;;;5079489;28;20032;-76
2022/09/04 13:14:06;;;;;;;4.10;1.10;;;32.70;55.00;;;;;;5079955;28;20051;-76
2022/09/04 13:17:03;;;;;;;2.45;1.23;;;32.80;55.40;;;;;;5082349;28;20390;-76
2022/09/04 13:19:46;;;;;;;4.10;1.80;;;32.80;55.80;;;;;;5083752;28;20044;-76
2022/09/04 13:22:40;;;;;;;5.05;1.20;;;32.90;54.50;;;;;;5086036;28;20066;-76
2022/09/04 13:25:41;;;;;;;7.55;1.30;;;33.10;53.70;;;;;;5082831;28;20051;-76
2022/09/04 13:28:34;;;;;;;4.47;1.35;;;33.10;54.90;;;;;;5080987;28;20036;-76
2022/09/04 13:31:18;;;;;;;2.72;1.10;;;33.10;52.10;;;;;;5082589;28;20040;-76
2022/09/04 13:34:09;;;;;;;1.92;1.20;;;32.90;52.20;;;;;;5082979;28;20032;-76
2022/09/04 13:36:56;;;;;;;1.98;1.30;;;32.60;53.70;;;;;;5078412;28;20048;-76
2022/09/04 13:40:00;;;;;;;4.30;1.30;;;32.80;54.20;;;;;;5081730;28;20054;-76
2022/09/04 13:42:44;;;;;;;5.28;1.38;;;32.90;53.00;;;;;;5083667;28;20172;-74
2022/09/04 13:45:22;;;;;;;5.78;1.30;;;32.60;54.20;;;;;;5082626;28;20040;-74
2022/09/04 13:47:56;;;;;;;2.60;1.10;;;32.40;53.50;;;;;;5083623;28;20534;-75
2022/09/04 13:50:42;;;;;;;2.78;1.30;;;32.10;56.00;;;;;;5087709;28;20047;-76
2022/09/04 13:53:09;;;;;;;3.50;1.15;;;32.00;55.70;;;;;;5078943;28;20059;-76
2022/09/04 13:55:45;;;;;;;2.28;1.20;;;32.20;55.00;;;;;;5080237;28;20593;-75
2022/09/04 13:58:26;;;;;;;9.65;1.40;;;32.40;53.20;;;;;;5085864;28;20167;-74
2022/09/04 14:01:05;;;;;;;3.40;1.10;;;32.50;53.30;;;;;;5077776;28;20055;-74
2022/09/04 14:03:39;;;;;;;7.38;1.63;;;32.80;54.50;;;;;;5077904;28;20060;-74
2022/09/04 14:06:09;;;;;;;3.10;1.50;;;33.10;53.00;;;;;;5079169;28;20124;-74
2022/09/04 14:08:38;;;;;;;3.30;1.00;;;33.20;53.40;;;;;;5085103;28;20308;-73
2022/09/04 14:11:09;;;;;;;6.05;1.40;;;33.30;53.30;;;;;;5083969;28;20036;-74
2022/09/04 14:14:11;;;;;;;3.03;1.25;;;33.50;54.10;;;;;;5082503;28;20261;-74
2022/09/04 14:16:40;;;;;;;2.58;1.10;;;33.60;53.70;;;;;;5080218;28;20085;-74
2022/09/04 14:19:39;;;;;;;3.53;1.17;;;33.50;52.50;;;;;;5080176;28;20075;-74
2022/09/04 14:22:44;;;;;;;4.53;1.15;;;33.30;51.90;;;;;;5086090;28;20448;-74
2022/09/04 14:25:17;;;;;;;3.97;1.25;;;33.40;53.20;;;;;;5082052;28;20139;-74
2022/09/04 14:28:13;;;;;;;1.08;0.98;;;33.30;52.40;;;;;;5081587;28;20493;-74
2022/09/04 14:30:53;;;;;;;2.22;1.25;;;32.90;52.40;;;;;;5081017;28;20048;-74
2022/09/04 14:33:42;;;;;;;1.75;1.10;;;32.70;54.00;;;;;;5081146;28;20120;-74